Time;durP1;ratioP1;P1;durP2;ratioP2;P2;SDS_P1;SDS_P2;PMS_P1;PMS_P2;Temp;Humidity;BMP_temperature;BMP_pressure;BME280_temperature;BME280_humidity;BME280_pressure;Samples;Min_cycle;Max_cycle;Signal;HPM_P1;HPM_P2
2022/12/28 00:01:22;;;;;;;7.83;5.23;;;;;;;8.11;100.00;95461.66;5071866;28;20310;-56
2022/12/28 00:03:48;;;;;;;9.17;5.03;;;;;;;8.10;100.00;95467.66;5071818;28;20187;-57
2022/12/28 00:06:14;;;;;;;7.97;5.47;;;;;;;8.17;100.00;95477.28;5072108;28;20220;-55
2022/12/28 00:08:40;;;;;;;6.60;4.90;;;;;;;8.15;100.00;95475.75;5071755;28;20184;-55
2022/12/28 00:11:09;;;;;;;6.40;4.70;;;;;;;8.28;100.00;95492.66;5071992;28;20197;-56
2022/12/28 00:13:35;;;;;;;7.00;4.70;;;;;;;8.20;100.00;95483.88;5071645;28;20694;-57
2022/12/28 00:16:16;;;;;;;6.87;5.10;;;;;;;8.18;100.00;95478.91;5071059;28;20217;-56
2022/12/28 00:18:41;;;;;;;7.50;5.47;;;;;;;8.16;100.00;95475.66;5069404;28;20331;-56
2022/12/28 00:21:07;;;;;;;5.97;4.80;;;;;;;8.14;100.00;95467.34;5069321;28;20288;-57
2022/12/28 00:23:33;;;;;;;7.17;5.10;;;;;;;8.14;100.00;95471.59;5070614;28;20189;-57
2022/12/28 00:26:10;;;;;;;6.53;5.33;;;;;;;8.22;100.00;95485.41;5071244;28;20766;-57
2022/12/28 00:28:36;;;;;;;7.70;5.10;;;;;;;8.12;100.00;95471.69;5071326;28;20246;-56
2022/12/28 00:31:02;;;;;;;5.73;4.60;;;;;;;8.13;100.00;95480.91;5071521;28;20623;-55
2022/12/28 00:33:27;;;;;;;6.87;4.57;;;;;;;8.08;100.00;95477.84;5071173;28;20237;-57
2022/12/28 00:35:54;;;;;;;9.07;4.87;;;;;;;8.22;100.00;95497.28;5071329;28;20674;-57
2022/12/28 00:38:19;;;;;;;5.53;4.47;;;;;;;8.20;100.00;95502.41;5071019;28;20200;-57
2022/12/28 00:40:45;;;;;;;6.83;5.23;;;;;;;8.20;100.00;95512.53;5071253;28;20593;-53
2022/12/28 00:43:10;;;;;;;6.73;4.73;;;;;;;8.21;100.00;95504.06;5070137;28;20189;-54
2022/12/28 00:45:36;;;;;;;9.50;5.00;;;;;;;8.19;100.00;95518.53;5068884;28;20294;-53
2022/12/28 00:48:01;;;;;;;6.50;4.63;;;;;;;8.11;100.00;95517.38;5069080;28;20184;-54
2022/12/28 00:50:27;;;;;;;6.63;4.90;;;;;;;8.15;100.00;95524.69;5069104;28;20217;-53
2022/12/28 00:52:52;;;;;;;7.70;4.77;;;;;;;8.25;100.00;95517.38;5068295;28;20267;-52
2022/12/28 00:55:17;;;;;;;6.77;4.90;;;;;;;8.24;100.00;95521.56;5070803;28;20212;-55
2022/12/28 00:57:43;;;;;;;7.43;5.83;;;;;;;8.23;100.00;95519.97;5070839;28;20203;-54
2022/12/28 01:00:09;;;;;;;9.47;6.40;;;;;;;8.14;100.00;95510.38;5070969;28;20219;-54
2022/12/28 01:02:34;;;;;;;7.57;5.93;;;;;;;8.19;100.00;95515.16;5070774;28;20219;-52
2022/12/28 01:05:00;;;;;;;9.17;6.10;;;;;;;8.25;100.00;95525.78;5070734;28;20671;-54
2022/12/28 01:07:25;;;;;;;8.67;6.37;;;;;;;8.18;100.00;95519.41;5070708;28;20252;-57
2022/12/28 01:09:50;;;;;;;9.87;6.00;;;;;;;8.13;100.00;95518.91;5069459;28;20709;-55
2022/12/28 01:12:16;;;;;;;9.50;6.03;;;;;;;8.19;100.00;95520.25;5070803;28;20189;-54
2022/12/28 01:14:41;;;;;;;7.97;6.47;;;;;;;8.13;100.00;95492.75;5070744;28;20254;-53
2022/12/28 01:17:07;;;;;;;7.73;5.70;;;;;;;8.19;100.00;95484.78;5070761;28;20275;-54
2022/12/28 01:19:32;;;;;;;10.53;7.47;;;;;;;8.18;100.00;95490.78;5069476;28;20213;-56
2022/12/28 01:21:58;;;;;;;9.43;6.63;;;;;;;8.03;100.00;95474.81;5070826;28;20226;-55
2022/12/28 01:24:23;;;;;;;10.13;7.67;;;;;;;8.09;100.00;95482.00;5070586;28;20232;-56
2022/12/28 01:26:48;;;;;;;9.20;6.80;;;;;;;8.05;100.00;95490.72;5070721;28;20258;-56
2022/12/28 01:29:14;;;;;;;8.97;6.73;;;;;;;8.03;100.00;95484.09;5070555;28;20205;-55
2022/12/28 01:31:39;;;;;;;8.13;6.80;;;;;;;7.99;100.00;95480.97;5070736;28;20250;-54
2022/12/28 01:34:05;;;;;;;10.17;7.53;;;;;;;7.97;100.00;95492.91;5070631;28;20185;-55
2022/12/28 01:36:31;;;;;;;9.00;7.23;;;;;;;7.82;100.00;95480.38;5070417;28;20189;-53
2022/12/28 01:39:00;;;;;;;11.13;7.80;;;;;;;7.83;100.00;95477.72;5070706;28;20185;-53
2022/12/28 01:41:27;;;;;;;10.40;7.77;;;;;;;7.82;100.00;95485.44;5069573;28;20201;-53
2022/12/28 01:43:53;;;;;;;11.13;8.13;;;;;;;7.74;100.00;95478.28;5068778;28;20670;-55
2022/12/28 01:46:20;;;;;;;11.70;8.40;;;;;;;7.80;100.00;95472.84;5070115;28;20219;-53
2022/12/28 01:49:08;;;;;;;10.60;7.67;;;;;;;7.83;100.00;95490.38;5070421;28;20682;-52
2022/12/28 01:51:52;;;;;;;10.83;8.73;;;;;;;7.83;100.00;95490.38;5070251;28;20188;-54
2022/12/28 01:54:20;;;;;;;11.57;7.83;;;;;;;7.77;100.00;95487.41;5070056;28;20209;-52
2022/12/28 01:56:46;;;;;;;12.43;8.83;;;;;;;7.63;100.00;95488.25;5070651;28;20199;-56
2022/12/28 01:59:12;;;;;;;12.27;9.07;;;;;;;7.55;100.00;95477.78;5070584;28;20243;-55
2022/12/28 02:01:37;;;;;;;15.90;9.50;;;;;;;7.58;100.00;95498.63;5070349;28;20581;-55
2022/12/28 02:04:03;;;;;;;12.77;9.13;;;;;;;7.62;100.00;95491.66;5071469;28;20565;-55
2022/12/28 02:06:30;;;;;;;12.93;9.40;;;;;;;7.55;100.00;95480.31;5089351;28;20764;-57
2022/12/28 02:09:02;;;;;;;12.07;8.53;;;;;;;7.55;100.00;95480.31;5073706;28;20196;-56
2022/12/28 02:11:28;;;;;;;12.67;8.57;;;;;;;7.51;100.00;95491.50;5074311;28;20232;-56
2022/12/28 02:13:54;;;;;;;13.70;9.07;;;;;;;7.44;100.00;95483.47;5072541;28;20189;-56
2022/12/28 02:16:20;;;;;;;13.67;8.80;;;;;;;7.54;100.00;95499.72;5071675;28;20301;-53
2022/12/28 02:18:46;;;;;;;12.93;8.40;;;;;;;7.52;100.00;95501.53;5071129;28;20942;-53
2022/12/28 02:21:14;;;;;;;11.13;8.53;;;;;;;7.46;100.00;95496.00;5073537;28;20224;-52
2022/12/28 02:23:45;;;;;;;11.93;8.37;;;;;;;7.48;100.00;95495.03;5073663;28;20231;-53
2022/12/28 02:26:18;;;;;;;12.80;9.50;;;;;;;7.52;100.00;95498.19;5073709;28;20294;-53
2022/12/28 02:29:07;;;;;;;12.57;9.00;;;;;;;7.43;100.00;95499.53;5073580;28;20216;-57
2022/12/28 02:31:47;;;;;;;13.67;8.90;;;;;;;7.48;100.00;95496.72;5073290;28;20674;-57
2022/12/28 02:34:25;;;;;;;13.23;9.07;;;;;;;7.33;100.00;95482.47;5073247;28;20208;-55
2022/12/28 02:37:14;;;;;;;15.77;9.77;;;;;;;7.40;100.00;95486.25;5073327;28;20725;-55
2022/12/28 02:39:46;;;;;;;15.30;10.73;;;;;;;7.32;100.00;95485.91;5088689;28;20205;-55
2022/12/28 02:42:12;;;;;;;13.00;9.20;;;;;;;7.31;100.00;95489.34;5073216;28;20189;-55
2022/12/28 02:50:09;;;;;;;13.17;9.37;;;;;;;7.23;100.00;95496.56;5073462;28;20623;-57
2022/12/28 02:52:45;;;;;;;13.07;9.17;;;;;;;7.24;100.00;95493.13;5071816;28;20196;-53
2022/12/28 02:59:04;;;;;;;13.13;8.50;;;;;;;7.26;100.00;95516.59;5071589;28;20716;-52
2022/12/28 03:01:38;;;;;;;11.77;8.43;;;;;;;7.15;100.00;95524.00;5009338;28;20195;-53
2022/12/28 03:04:20;;;;;;;12.40;8.80;;;;;;;7.21;100.00;95533.75;5010875;28;20194;-53
2022/12/28 03:10:10;;;;;;;11.73;8.17;;;;;;;7.28;100.00;95545.97;5071120;28;20261;-53
2022/12/28 03:12:47;;;;;;;10.33;7.13;;;;;;;7.47;100.00;95565.94;5072842;28;20224;-52
2022/12/28 03:15:29;;;;;;;11.23;7.33;;;;;;;7.54;100.00;95557.09;5072326;28;20204;-57
2022/12/28 03:32:02;;;;;;;11.13;7.23;;;;;;;7.98;100.00;95594.97;5072263;28;20253;-53
2022/12/28 03:34:28;;;;;;;17.40;8.87;;;;;;;7.98;100.00;95594.97;5072330;28;20205;-52
2022/12/28 03:37:01;;;;;;;9.57;6.80;;;;;;;7.60;100.00;95592.97;5072407;28;20693;-52
2022/12/28 03:39:35;;;;;;;12.17;8.23;;;;;;;7.52;100.00;95563.94;5070835;28;20553;-53
2022/12/28 03:45:11;;;;;;;11.93;7.83;;;;;;;7.31;100.00;95560.94;5071669;28;20273;-56
2022/12/28 03:47:40;;;;;;;12.30;8.23;;;;;;;7.25;100.00;95557.97;5069842;28;20291;-52
2022/12/28 03:50:13;;;;;;;11.43;8.37;;;;;;;7.26;100.00;95562.13;5070484;28;20217;-53
2022/12/28 03:52:39;;;;;;;11.93;8.13;;;;;;;7.31;100.00;95552.56;5071950;28;20189;-53
2022/12/28 03:55:04;;;;;;;11.63;7.47;;;;;;;7.24;100.00;95557.16;5072032;28;20305;-53
2022/12/28 03:57:30;;;;;;;9.00;6.33;;;;;;;7.16;100.00;95538.25;5072078;28;20185;-53
2022/12/28 03:59:56;;;;;;;7.10;5.83;;;;;;;7.06;100.00;95540.50;5071953;28;20221;-52
2022/12/28 04:02:21;;;;;;;14.97;9.30;;;;;;;7.14;100.00;95557.75;5072020;28;20185;-53
2022/12/28 04:04:47;;;;;;;10.10;6.77;;;;;;;7.00;100.00;95570.34;5071813;28;20216;-53
2022/12/28 04:07:13;;;;;;;11.73;8.13;;;;;;;6.99;100.00;95554.38;5071796;28;20701;-53
2022/12/28 04:09:38;;;;;;;9.97;6.47;;;;;;;6.93;100.00;95562.28;5071593;28;20220;-53
2022/12/28 04:12:04;;;;;;;10.20;6.90;;;;;;;7.01;100.00;95556.84;5071779;28;20324;-53
2022/12/28 04:14:30;;;;;;;8.53;5.63;;;;;;;7.04;100.00;95571.81;5071818;28;20208;-53
2022/12/28 04:16:55;;;;;;;9.90;6.43;;;;;;;7.04;100.00;95577.69;5071880;28;20195;-53
2022/12/28 04:19:21;;;;;;;11.43;5.83;;;;;;;7.05;100.00;95591.16;5071634;28;20237;-54
2022/12/28 04:21:46;;;;;;;7.20;5.30;;;;;;;6.97;100.00;95578.91;5071700;28;20717;-52
2022/12/28 04:24:12;;;;;;;6.83;5.10;;;;;;;7.08;100.00;95586.72;5071950;28;20215;-52
2022/12/28 04:26:37;;;;;;;6.40;4.90;;;;;;;7.01;100.00;95572.00;5071819;28;20217;-57
2022/12/28 04:29:03;;;;;;;9.73;5.97;;;;;;;6.88;100.00;95581.97;5071636;28;20208;-53
2022/12/28 04:31:29;;;;;;;8.23;5.70;;;;;;;6.94;100.00;95565.66;5071998;28;20200;-53
2022/12/28 04:33:58;;;;;;;8.23;5.33;;;;;;;7.00;100.00;95593.94;5071501;28;20679;-53
2022/12/28 04:36:24;;;;;;;7.63;4.97;;;;;;;6.94;100.00;95583.34;5071372;28;20193;-53
2022/12/28 04:38:50;;;;;;;9.27;6.07;;;;;;;6.96;100.00;95604.28;5071260;28;20203;-52
2022/12/28 04:41:15;;;;;;;11.10;6.77;;;;;;;6.82;100.00;95602.53;5071931;28;20208;-56
2022/12/28 04:43:41;;;;;;;10.13;5.90;;;;;;;6.83;100.00;95613.47;5071284;28;20242;-55
2022/12/28 04:46:10;;;;;;;8.27;6.20;;;;;;;6.84;100.00;95613.38;5070357;28;20647;-56
2022/12/28 04:48:36;;;;;;;7.50;4.80;;;;;;;6.85;100.00;95614.19;5068931;28;20264;-56
2022/12/28 04:51:09;;;;;;;8.13;4.60;;;;;;;6.98;100.00;95630.28;5068912;28;20719;-56
2022/12/28 04:53:36;;;;;;;8.03;4.97;;;;;;;6.84;100.00;95630.22;5070703;28;20196;-57
2022/12/28 04:56:03;;;;;;;7.60;5.07;;;;;;;6.88;100.00;95646.84;5070920;28;20216;-55
2022/12/28 04:58:29;;;;;;;8.70;4.93;;;;;;;6.86;100.00;95630.97;5070846;28;20203;-57
2022/12/28 05:01:01;;;;;;;7.03;5.00;;;;;;;6.78;100.00;95639.78;5071008;28;20216;-53
2022/12/28 05:03:26;;;;;;;7.90;5.37;;;;;;;6.79;100.00;95638.88;5071006;28;20196;-53
2022/12/28 05:05:52;;;;;;;6.43;4.70;;;;;;;6.85;100.00;95650.34;5070949;28;20228;-53
2022/12/28 05:08:17;;;;;;;8.60;5.97;;;;;;;6.85;100.00;95657.16;5071160;28;20195;-55
2022/12/28 05:10:43;;;;;;;8.80;5.50;;;;;;;6.93;100.00;95643.19;5070967;28;20239;-53
2022/12/28 05:13:08;;;;;;;8.30;4.50;;;;;;;7.12;100.00;95641.28;5070899;28;20588;-53
2022/12/28 05:15:34;;;;;;;7.00;4.80;;;;;;;7.25;100.00;95654.84;5070656;28;20713;-52
2022/12/28 05:17:59;;;;;;;7.20;4.17;;;;;;;7.38;100.00;95665.94;5070793;28;20215;-52
2022/12/28 05:20:24;;;;;;;6.07;3.73;;;;;;;7.41;100.00;95678.38;5070111;28;20217;-53
2022/12/28 05:22:50;;;;;;;5.50;3.67;;;;;;;7.58;100.00;95692.63;5068692;28;20674;-52
2022/12/28 05:25:15;;;;;;;5.37;3.93;;;;;;;7.66;100.00;95703.13;5068551;28;20216;-53
2022/12/28 05:27:41;;;;;;;5.60;4.57;;;;;;;7.76;100.00;95683.22;5069363;28;20262;-53
2022/12/28 05:30:07;;;;;;;6.50;4.03;;;;;;;7.91;100.00;95710.16;5070811;28;20678;-54
2022/12/28 05:32:32;;;;;;;7.37;4.27;;;;;;;8.45;100.00;95420.66;5070645;28;20263;-56
2022/12/28 05:34:58;;;;;;;6.77;5.03;;;;;;;8.19;100.00;95690.75;5070500;28;20308;-52
2022/12/28 05:37:23;;;;;;;4.93;3.73;;;;;;;8.00;100.00;95722.31;5070501;28;20247;-56
2022/12/28 05:39:49;;;;;;;6.20;4.17;;;;;;;7.96;100.00;95706.44;5073119;28;20667;-57
2022/12/28 05:42:14;;;;;;;5.57;3.93;;;;;;;8.01;100.00;95754.31;5073747;28;20215;-57
2022/12/28 05:44:39;;;;;;;5.47;3.83;;;;;;;7.88;100.00;95733.91;5072436;28;20802;-56
2022/12/28 05:47:05;;;;;;;4.27;3.27;;;;;;;8.05;100.00;95740.56;5072310;28;20220;-56
2022/12/28 05:49:30;;;;;;;6.90;3.67;;;;;;;8.01;100.00;95766.97;5073813;28;20221;-57
2022/12/28 05:51:56;;;;;;;5.33;3.90;;;;;;;7.87;100.00;95755.09;5073534;28;20688;-56
2022/12/28 05:54:21;;;;;;;6.77;4.20;;;;;;;7.74;100.00;95736.41;5073712;28;20257;-56
2022/12/28 05:56:50;;;;;;;4.87;3.80;;;;;;;7.79;100.00;95733.63;5074002;28;20310;-52
2022/12/28 05:59:15;;;;;;;8.07;4.47;;;;;;;7.72;100.00;95767.75;5073485;28;20217;-52
2022/12/28 06:01:43;;;;;;;5.47;4.20;;;;;;;7.54;100.00;95752.72;5073602;28;20197;-52
2022/12/28 06:04:18;;;;;;;7.47;3.23;;;;;;;7.64;100.00;95727.72;5073708;28;20192;-52
2022/12/28 06:06:45;;;;;;;7.27;4.20;;;;;;;7.65;100.00;95754.66;5073856;28;20277;-57
2022/12/28 06:09:11;;;;;;;5.23;3.97;;;;;;;7.49;100.00;95766.53;5073843;28;20259;-57
2022/12/28 06:11:37;;;;;;;6.73;4.73;;;;;;;7.41;100.00;95746.69;5073487;28;20200;-57
2022/12/28 06:14:04;;;;;;;8.27;4.30;;;;;;;7.48;100.00;95747.19;5073674;28;20673;-53
2022/12/28 06:16:32;;;;;;;6.33;4.07;;;;;;;7.54;100.00;95777.19;5073084;28;20189;-53
2022/12/28 06:18:58;;;;;;;7.17;4.30;;;;;;;7.48;100.00;95765.72;5071565;28;20331;-53
2022/12/28 06:21:29;;;;;;;6.23;4.37;;;;;;;7.46;100.00;95759.91;5071931;28;20196;-53
2022/12/28 06:23:59;;;;;;;6.83;3.83;;;;;;;7.45;100.00;95775.97;5073104;28;20185;-52
2022/12/28 06:26:26;;;;;;;6.13;3.93;;;;;;;7.27;100.00;95755.94;5073071;28;20243;-53
2022/12/28 06:28:52;;;;;;;6.90;3.90;;;;;;;7.16;100.00;95700.06;5073446;28;20223;-55
2022/12/28 06:31:29;;;;;;;5.67;4.37;;;;;;;7.14;100.00;95714.50;5073923;28;20193;-53
2022/12/28 06:33:57;;;;;;;7.27;4.23;;;;;;;7.29;100.00;95717.00;5073348;28;20185;-53
2022/12/28 06:36:40;;;;;;;5.87;4.47;;;;;;;7.25;100.00;95722.34;5073459;28;20189;-54
2022/12/28 06:39:08;;;;;;;8.23;5.13;;;;;;;7.15;100.00;95690.88;5071142;28;20245;-53
2022/12/28 06:41:34;;;;;;;6.37;4.20;;;;;;;7.19;100.00;95715.09;5073312;28;20727;-53
2022/12/28 06:43:59;;;;;;;6.93;4.90;;;;;;;7.19;100.00;95697.41;5073182;28;20631;-56
2022/12/28 06:46:28;;;;;;;7.57;4.93;;;;;;;7.04;100.00;95699.03;5073105;28;20271;-56
2022/12/28 06:48:53;;;;;;;7.60;4.50;;;;;;;7.10;100.00;95696.16;5073007;28;20219;-52
2022/12/28 06:51:40;;;;;;;10.67;5.87;;;;;;;7.23;100.00;95721.59;5071734;28;20213;-54
2022/12/28 06:54:07;;;;;;;7.10;4.83;;;;;;;7.28;100.00;95720.44;5072978;28;20196;-54
2022/12/28 06:56:34;;;;;;;6.87;4.60;;;;;;;7.46;100.00;95721.16;5073160;28;20284;-52
2022/12/28 06:59:00;;;;;;;6.63;4.30;;;;;;;7.62;100.00;95730.34;5073133;28;20263;-53
2022/12/28 07:01:28;;;;;;;7.37;4.90;;;;;;;7.50;100.00;95720.06;5073099;28;20288;-55
2022/12/28 07:03:55;;;;;;;6.47;4.57;;;;;;;7.47;100.00;95710.94;5070664;28;20212;-53
2022/12/28 07:06:24;;;;;;;8.47;5.27;;;;;;;7.29;100.00;95701.03;5070710;28;20592;-52
2022/12/28 07:08:50;;;;;;;6.70;4.50;;;;;;;7.48;100.00;95699.94;5071369;28;20212;-53
2022/12/28 07:11:19;;;;;;;7.60;6.00;;;;;;;7.52;100.00;95685.38;5072734;28;20245;-52
2022/12/28 07:13:45;;;;;;;7.07;4.60;;;;;;;7.60;100.00;95673.13;5072715;28;20185;-54
2022/12/28 07:16:14;;;;;;;7.17;4.50;;;;;;;7.65;100.00;95709.91;5073115;28;20212;-53
2022/12/28 07:18:41;;;;;;;8.23;4.90;;;;;;;7.64;100.00;95683.00;5072688;28;20221;-54
2022/12/28 07:21:17;;;;;;;7.57;5.40;;;;;;;7.69;100.00;95689.50;5072895;28;20213;-54
2022/12/28 07:23:42;;;;;;;8.50;5.40;;;;;;;7.59;100.00;95684.16;5072575;28;20199;-52
2022/12/28 07:26:11;;;;;;;9.03;4.77;;;;;;;7.43;100.00;95674.06;5072548;28;20209;-52
2022/12/28 07:28:38;;;;;;;16.10;5.70;;;;;;;7.46;100.00;95676.44;5072497;28;20204;-56
2022/12/28 07:31:08;;;;;;;9.90;5.90;;;;;;;7.47;100.00;95662.88;5072371;28;20213;-57
2022/12/28 07:33:35;;;;;;;7.90;4.97;;;;;;;7.78;100.00;95691.53;5070275;28;20216;-56
2022/12/28 07:36:01;;;;;;;9.37;5.70;;;;;;;7.96;100.00;95711.50;5071576;28;20294;-52
2022/12/28 07:38:26;;;;;;;7.93;5.23;;;;;;;8.08;100.00;95700.69;5072566;28;20318;-54
2022/12/28 07:40:52;;;;;;;10.57;5.20;;;;;;;8.40;100.00;95689.50;5072962;28;20307;-53
2022/12/28 07:43:17;;;;;;;8.97;6.07;;;;;;;8.66;100.00;95750.50;5072378;28;20181;-54
2022/12/28 07:45:43;;;;;;;10.80;6.97;;;;;;;8.76;100.00;95774.38;5072429;28;20271;-53
2022/12/28 07:48:08;;;;;;;9.23;6.03;;;;;;;8.52;100.00;95769.06;5072202;28;20177;-53
2022/12/28 07:50:33;;;;;;;17.03;10.37;;;;;;;8.51;100.00;95764.06;5072274;28;20298;-56
2022/12/28 07:53:00;;;;;;;28.97;15.57;;;;;;;8.77;100.00;95713.44;5072163;28;20212;-56
2022/12/28 07:55:28;;;;;;;10.30;7.20;;;;;;;8.62;100.00;95751.59;5072124;28;20212;-57
2022/12/28 07:57:54;;;;;;;11.20;6.57;;;;;;;8.71;100.00;95758.63;5071924;28;20246;-56
2022/12/28 08:00:19;;;;;;;11.83;6.77;;;;;;;9.94;100.00;95585.72;5071602;28;20208;-53
2022/12/28 08:02:45;;;;;;;11.37;6.50;;;;;;;10.59;100.00;95583.78;5071382;28;20196;-56
2022/12/28 08:05:10;;;;;;;7.83;5.87;;;;;;;10.10;100.00;95840.41;5070661;28;20248;-53
2022/12/28 08:07:36;;;;;;;12.83;7.10;;;;;;;9.43;100.00;95784.63;5071830;28;20201;-52
2022/12/28 08:10:01;;;;;;;10.53;7.17;;;;;;;8.99;100.00;95750.97;5071558;28;20208;-53
2022/12/28 08:12:26;;;;;;;16.20;6.80;;;;;;;8.78;100.00;95729.47;5071877;28;20667;-53
2022/12/28 08:14:52;;;;;;;10.27;7.10;;;;;;;8.53;100.00;95701.44;5071383;28;20218;-56
2022/12/28 08:17:17;;;;;;;9.87;7.30;;;;;;;8.25;100.00;95677.75;5072161;28;20177;-57
2022/12/28 08:19:43;;;;;;;11.33;7.40;;;;;;;8.31;100.00;95662.19;5071351;28;20236;-58
2022/12/28 08:22:09;;;;;;;9.57;6.80;;;;;;;8.41;100.00;95688.59;5071205;28;20238;-53
2022/12/28 08:24:34;;;;;;;10.40;7.20;;;;;;;8.40;100.00;95681.09;5070867;28;20254;-53
2022/12/28 08:27:00;;;;;;;10.23;6.97;;;;;;;8.37;100.00;95681.28;5071048;28;20216;-56
2022/12/28 08:29:25;;;;;;;11.17;7.43;;;;;;;8.32;100.00;95679.00;5071224;28;20258;-53
2022/12/28 08:31:50;;;;;;;11.20;7.40;;;;;;;8.03;100.00;95661.34;5071062;28;20219;-54
2022/12/28 08:34:21;;;;;;;9.47;6.73;;;;;;;8.20;100.00;95658.66;5068317;28;20213;-56
2022/12/28 08:36:46;;;;;;;9.87;7.07;;;;;;;8.22;100.00;95654.31;5071637;28;20184;-57
2022/12/28 08:39:13;;;;;;;10.73;6.20;;;;;;;8.06;100.00;95672.09;5071613;28;20209;-56
2022/12/28 08:41:38;;;;;;;10.37;7.13;;;;;;;8.13;100.00;95675.09;5071435;28;20258;-56
2022/12/28 08:44:04;;;;;;;11.40;7.33;;;;;;;8.16;100.00;95674.94;5071297;28;20686;-55
2022/12/28 08:46:32;;;;;;;11.63;7.30;;;;;;;7.98;100.00;95659.06;5071925;28;20251;-57
2022/12/28 08:48:58;;;;;;;10.13;7.37;;;;;;;7.83;100.00;95654.91;5071151;28;20192;-57
2022/12/28 08:51:26;;;;;;;10.77;6.80;;;;;;;8.01;100.00;95668.22;5071814;28;20200;-56
2022/12/28 08:53:52;;;;;;;11.53;7.10;;;;;;;8.01;100.00;95668.22;5071118;28;20216;-56
2022/12/28 08:56:21;;;;;;;13.57;7.80;;;;;;;7.87;100.00;95653.84;5072014;28;20189;-53
2022/12/28 08:58:47;;;;;;;12.30;7.30;;;;;;;7.85;100.00;95652.28;5071226;28;20674;-53
2022/12/28 09:01:24;;;;;;;11.00;7.43;;;;;;;7.79;100.00;95663.59;5097341;22;20216;-57
2022/12/28 09:03:52;;;;;;;13.33;7.10;;;;;;;7.83;100.00;95664.22;5091380;28;20505;-57
2022/12/28 09:06:23;;;;;;;9.63;6.80;;;;;;;7.88;100.00;95647.84;5053138;28;20209;-57
2022/12/28 09:08:51;;;;;;;13.47;7.17;;;;;;;7.76;100.00;95642.72;5071322;28;20235;-56
2022/12/28 09:11:16;;;;;;;9.40;6.80;;;;;;;7.75;100.00;95646.13;5071235;28;20188;-55
2022/12/28 09:13:42;;;;;;;11.53;6.97;;;;;;;7.72;100.00;95641.22;5070108;28;20203;-55
2022/12/28 09:16:13;;;;;;;12.43;7.10;;;;;;;7.94;100.00;95642.44;5071013;28;20304;-56
2022/12/28 09:18:40;;;;;;;11.30;7.27;;;;;;;8.04;100.00;95647.78;5071140;28;20189;-55
2022/12/28 09:21:15;;;;;;;11.63;6.70;;;;;;;8.17;100.00;95624.19;5070784;28;20765;-54
2022/12/28 09:23:41;;;;;;;9.27;6.90;;;;;;;8.26;100.00;95659.09;5071600;28;20715;-55
2022/12/28 09:26:09;;;;;;;10.20;7.63;;;;;;;8.01;100.00;95679.16;5070371;28;20240;-57
2022/12/28 09:28:35;;;;;;;9.53;6.43;;;;;;;7.86;100.00;95684.31;5070515;28;20219;-56
2022/12/28 09:31:08;;;;;;;9.87;6.20;;;;;;;7.77;100.00;95667.94;5070625;28;20196;-57
2022/12/28 09:36:19;;;;;;;7.90;5.90;;;;;;;7.84;100.00;95694.50;5071121;28;20619;-54
2022/12/28 09:38:45;;;;;;;8.27;5.87;;;;;;;7.83;100.00;95674.34;5070506;28;20271;-53
2022/12/28 09:41:32;;;;;;;7.60;5.40;;;;;;;7.83;100.00;95680.22;5050743;28;20204;-54
2022/12/28 09:44:16;;;;;;;7.40;5.23;;;;;;;8.11;100.00;95677.72;5069247;28;20215;-54
2022/12/28 09:46:52;;;;;;;9.53;5.83;;;;;;;8.19;100.00;95687.41;5068884;28;20216;-53
2022/12/28 09:49:22;;;;;;;9.90;6.00;;;;;;;8.37;100.00;95682.09;5070426;28;20261;-53
2022/12/28 09:51:59;;;;;;;7.50;5.50;;;;;;;8.43;100.00;95694.41;5070150;28;20243;-53
2022/12/28 09:54:25;;;;;;;7.80;5.97;;;;;;;8.52;100.00;95684.63;5070209;28;20232;-54
2022/12/28 09:56:52;;;;;;;17.27;6.23;;;;;;;8.71;100.00;95669.91;5070481;28;20184;-53
2022/12/28 09:59:21;;;;;;;10.37;6.93;;;;;;;8.79;100.00;95713.34;5069989;28;20232;-56
2022/12/28 10:01:57;;;;;;;8.97;5.40;;;;;;;8.59;100.00;95731.47;5069598;28;20185;-56
2022/12/28 10:04:23;;;;;;;11.30;5.57;;;;;;;8.32;100.00;95723.81;5071038;28;20236;-52
2022/12/28 10:06:49;;;;;;;10.27;5.27;;;;;;;8.38;100.00;95718.38;5069797;28;20678;-53
2022/12/28 10:09:28;;;;;;;9.97;5.30;;;;;;;8.13;100.00;95664.97;5069051;28;20197;-56
2022/12/28 10:11:53;;;;;;;8.00;5.67;;;;;;;8.61;100.00;95691.66;5067986;28;20197;-52
2022/12/28 10:14:26;;;;;;;7.83;6.23;;;;;;;8.81;100.00;95714.88;5069157;28;20217;-54
2022/12/28 10:16:52;;;;;;;7.43;5.30;;;;;;;8.61;100.00;95654.44;5070201;28;20184;-53
2022/12/28 10:19:22;;;;;;;9.80;5.37;;;;;;;8.82;100.00;95692.91;5069440;28;20213;-57
2022/12/28 10:21:59;;;;;;;12.50;5.93;;;;;;;8.86;100.00;95694.34;5070416;28;20225;-53
2022/12/28 10:24:25;;;;;;;10.50;5.43;;;;;;;8.83;100.00;95679.28;5070466;28;20212;-53
2022/12/28 10:26:51;;;;;;;8.33;5.30;;;;;;;8.92;100.00;95704.09;5073120;28;20245;-53
2022/12/28 10:29:21;;;;;;;10.13;6.10;;;;;;;8.98;100.00;95678.38;5072020;28;20265;-54
2022/12/28 10:31:58;;;;;;;7.27;5.37;;;;;;;8.93;100.00;95691.31;5071303;28;20189;-56
2022/12/28 10:34:25;;;;;;;11.90;6.43;;;;;;;8.91;100.00;95710.88;5071556;28;20725;-56
2022/12/28 10:36:53;;;;;;;9.17;6.43;;;;;;;9.15;100.00;95734.75;5073297;28;20726;-56
2022/12/28 10:39:24;;;;;;;11.63;6.53;;;;;;;9.15;100.00;95732.19;5073391;28;20689;-56
2022/12/28 10:41:51;;;;;;;10.73;6.10;;;;;;;9.14;100.00;95742.44;5073365;28;20208;-55
2022/12/28 10:44:30;;;;;;;11.57;6.27;;;;;;;9.36;100.00;95774.91;5071742;28;20201;-53
2022/12/28 10:47:02;;;;;;;9.27;6.53;;;;;;;9.57;100.00;95793.91;5073079;28;20230;-53
2022/12/28 10:49:33;;;;;;;9.50;6.00;;;;;;;9.39;100.00;95740.03;5072811;28;20266;-55
2022/12/28 10:52:13;;;;;;;9.23;6.37;;;;;;;9.61;100.00;95750.47;5072718;28;20184;-56
2022/12/28 10:54:39;;;;;;;8.60;5.80;;;;;;;9.57;100.00;95765.97;5072485;28;20261;-58
2022/12/28 10:57:04;;;;;;;10.97;6.17;;;;;;;9.79;100.00;95768.78;5071003;28;20189;-55
2022/12/28 10:59:31;;;;;;;11.43;6.70;;;;;;;9.85;100.00;95759.06;5072955;28;20223;-55
2022/12/28 11:02:21;;;;;;;10.33;6.77;;;;;;;9.84;100.00;95769.28;5073009;28;20193;-55
2022/12/28 11:05:20;;;;;;;10.97;6.83;;;;;;;9.84;100.00;95742.19;5072844;28;20607;-53
2022/12/28 11:07:45;;;;;;;9.20;6.50;;;;;;;9.74;100.00;95722.53;5073030;28;20216;-54
2022/12/28 11:10:14;;;;;;;13.03;7.37;;;;;;;9.86;100.00;95754.75;5073040;28;20216;-54
2022/12/28 11:12:43;;;;;;;14.97;7.80;;;;;;;9.62;100.00;95736.03;5072942;28;20197;-54
2022/12/28 11:15:17;;;;;;;11.97;6.80;;;;;;;9.66;100.00;95723.03;5072701;28;20581;-59
2022/12/28 11:17:43;;;;;;;9.97;7.07;;;;;;;9.49;100.00;95705.56;5071850;28;20197;-57
2022/12/28 11:20:18;;;;;;;10.80;6.83;;;;;;;9.54;100.00;95678.13;5072784;28;20723;-57
2022/12/28 11:22:45;;;;;;;13.13;7.03;;;;;;;9.78;100.00;95747.66;5072607;28;20692;-53
2022/12/28 11:25:16;;;;;;;13.03;6.70;;;;;;;9.73;100.00;95777.63;5072646;28;20265;-55
2022/12/28 11:27:42;;;;;;;14.73;7.83;;;;;;;9.78;100.00;95736.66;5054586;28;20220;-54
2022/12/28 11:30:18;;;;;;;9.63;6.67;;;;;;;9.83;100.00;95744.81;5087097;22;20606;-54
2022/12/28 11:32:53;;;;;;;17.90;8.80;;;;;;;9.83;100.00;95754.97;5092832;28;20313;-56
2022/12/28 11:35:27;;;;;;;19.50;8.57;;;;;;;9.70;100.00;95752.41;5092876;28;20207;-55
2022/12/28 11:37:55;;;;;;;18.90;9.33;;;;;;;9.69;100.00;95738.09;5091857;28;20233;-56
2022/12/28 11:40:43;;;;;;;17.10;8.60;;;;;;;9.63;100.00;95742.75;5093174;28;20686;-54
2022/12/28 11:43:30;;;;;;;12.53;8.17;;;;;;;9.50;100.00;95724.94;5074393;28;20192;-56
2022/12/28 11:46:05;;;;;;;17.07;10.47;;;;;;;9.25;100.00;95684.25;5092520;28;20277;-55
2022/12/28 11:48:42;;;;;;;20.70;11.13;;;;;;;9.39;100.00;95668.97;5092549;28;20234;-55
2022/12/28 11:51:21;;;;;;;19.90;12.50;;;;;;;9.28;100.00;95653.59;5091693;28;20712;-55
2022/12/28 11:53:58;;;;;;;18.53;12.50;;;;;;;9.34;100.00;95650.69;5090570;28;20654;-56
2022/12/28 11:56:44;;;;;;;25.23;12.53;;;;;;;9.32;100.00;95627.13;5091128;28;20263;-54
2022/12/28 11:59:26;;;;;;;19.57;12.27;;;;;;;9.29;100.00;95658.56;5075017;28;20284;-55
2022/12/28 12:01:56;;;;;;;16.43;10.97;;;;;;;9.29;100.00;95624.81;5092498;28;20226;-53
2022/12/28 12:04:42;;;;;;;19.10;10.63;;;;;;;9.36;100.00;95641.25;5092316;28;20231;-56
2022/12/28 12:07:44;;;;;;;19.33;10.87;;;;;;;9.45;100.00;95620.38;5092034;28;20223;-57
2022/12/28 12:10:18;;;;;;;26.07;12.30;;;;;;;9.39;100.00;95636.00;5074121;28;20729;-53